Silver Shadow — C6FN6 — position and weather

sailwx.info

Track history (hours):
 
Tides and Currents Weather Stations Pressure Air Temp Water Temp Dewpoint Dewpoint Depression Visibility Wind Speed Wind Dir Waves Ship Positions

Silver Shadow

Operator: V Ships Leisure SAM

Last reported at 2015-Aug-28 20:12 UTC. Time now 2015-Aug-31 21:55 UTC.
Position N 51°15' W 128°26'.

Length 186 m; draft 6.1 m.

Type: Passenger vessel. MMSI: 308628000.

Date/timePositionNaut miles runAvg speedWind from/ knotsBaromVisibWave heightAir tempDewpointWater temp
2015-Aug-28 20:12N 51°15' W 128°26'1115.7
2015-Aug-28 19:31N 51°09' W 128°12'1515.7
2015-Aug-28 18:33N 51°01' W 127°52'1414.6
2015-Aug-28 17:34N 50°52' W 127°34'1716.2
2015-Aug-28 16:32N 50°45' W 127°10'7615.2
2015-Aug-28 11:31N 50°12' W 125°22'1311.8
2015-Aug-28 10:24N 49°60' W 125°12'8 9.1
2015-Aug-28 09:32N 49°55' W 125°03'1110.8
2015-Aug-28 08:33N 49°47' W 124°51'1110.7
2015-Aug-28 07:32N 49°39' W 124°40'1110.8
2015-Aug-28 06:34N 49°31' W 124°30'1010.4
2015-Aug-28 05:33N 49°25' W 124°17'1010.5
2015-Aug-28 04:33N 49°23' W 124°01'1110.5
2015-Aug-28 03:33N 49°21' W 123°45'1110.6
2015-Aug-28 02:33N 49°19' W 123°30'1110.6
2015-Aug-28 01:33N 49°19' W 123°13'5 4.6
2015-Aug-28 00:31N 49°17' W 123°07'0 0.0
2015-Aug-27 23:31N 49°17' W 123°07'0 0.0
2015-Aug-27 22:31N 49°17' W 123°07'0 0.0
2015-Aug-27 21:31N 49°17' W 123°07'0 0.0
2015-Aug-27 20:31N 49°17' W 123°07'0 0.0
2015-Aug-27 19:31N 49°17' W 123°07'0 0.0
2015-Aug-27 18:31N 49°17' W 123°07'0 0.0
2015-Aug-27 17:31N 49°17' W 123°07'0 0.0
2015-Aug-27 16:31N 49°17' W 123°07'0 0.0
2015-Aug-27 15:31N 49°17' W 123°07'0 0.2
2015-Aug-27 14:33N 49°17' W 123°06'9 9.2
2015-Aug-27 13:33N 49°18' W 123°20'1211.9
2015-Aug-27 12:33N 49°19' W 123°39'1212.0
2015-Aug-27 11:33N 49°21' W 123°57'1211.9
2015-Aug-27 10:33N 49°25' W 124°14'1211.8
2015-Aug-27 09:33N 49°30' W 124°30'1212.0
2015-Aug-27 08:33N 49°39' W 124°43'1212.0
2015-Aug-27 07:33N 49°48' W 124°56'1212.0
2015-Aug-27 06:31N 49°57' W 125°09'1211.9
2015-Aug-27 05:33N 50°07' W 125°19'1111.0
2015-Aug-27 04:33N 50°17' W 125°24'5212.3
2015-Aug-27 00:18N 50°35' W 126°42'1215.1
2015-Aug-26 23:32N 50°42' W 126°56'1414.5
2015-Aug-26 22:33N 50°47' W 127°17'1514.8
2015-Aug-26 21:33N 50°54' W 127°38'1414.3
2015-Aug-26 20:33N 51°02' W 127°57'49112.0
2015-Aug-25 03:34N 58°09' W 134°56'  
2015-Aug-22 14:33N 58°14' W 135°32'1515.2
2015-Aug-22 13:33N 58°20' W 135°58'  
2015-Aug-19 06:33N 57°11' W 136°24'1313.3
2015-Aug-19 05:33N 57°02' W 136°05'1111.3
2015-Aug-19 04:33N 56°57' W 135°47'1010.4
2015-Aug-19 03:33N 57°03' W 135°31'6 5.5
2015-Aug-19 02:33N 57°07' W 135°24'0 0.0
2015-Aug-19 01:31N 57°07' W 135°24'0 0.0
2015-Aug-19 00:34N 57°07' W 135°24'0 0.0
2015-Aug-18 23:31N 57°07' W 135°24'0 0.0
2015-Aug-18 22:34N 57°07' W 135°24'0 0.0
2015-Aug-18 21:31N 57°07' W 135°24'0 0.0
2015-Aug-18 20:31N 57°07' W 135°24'  
Track history (hours):
 
Tides and Currents Weather Stations Pressure Air Temp Water Temp Dewpoint Dewpoint Depression Visibility Wind Speed Wind Dir Waves Ship Positions

Silver Shadow

Operator: V Ships Leisure SAM

Last reported at 2015-Aug-28 20:12 UTC. Time now 2015-Aug-31 21:55 UTC.
Position N 51°15' W 128°26'.

Length 186 m; draft 6.1 m.

Type: Passenger vessel. MMSI: 308628000.

Date/timePositionNaut miles runAvg speedWind from/ knotsBaromVisibWave heightAir tempDewpointWater temp
2015-Aug-28 20:12N 51°15' W 128°26'1115.7
2015-Aug-28 19:31N 51°09' W 128°12'1515.7
2015-Aug-28 18:33N 51°01' W 127°52'1414.6
2015-Aug-28 17:34N 50°52' W 127°34'1716.2
2015-Aug-28 16:32N 50°45' W 127°10'7615.2
2015-Aug-28 11:31N 50°12' W 125°22'1311.8
2015-Aug-28 10:24N 49°60' W 125°12'8 9.1
2015-Aug-28 09:32N 49°55' W 125°03'1110.8
2015-Aug-28 08:33N 49°47' W 124°51'1110.7
2015-Aug-28 07:32N 49°39' W 124°40'1110.8
2015-Aug-28 06:34N 49°31' W 124°30'1010.4
2015-Aug-28 05:33N 49°25' W 124°17'1010.5
2015-Aug-28 04:33N 49°23' W 124°01'1110.5
2015-Aug-28 03:33N 49°21' W 123°45'1110.6
2015-Aug-28 02:33N 49°19' W 123°30'1110.6
2015-Aug-28 01:33N 49°19' W 123°13'5 4.6
2015-Aug-28 00:31N 49°17' W 123°07'0 0.0
2015-Aug-27 23:31N 49°17' W 123°07'0 0.0
2015-Aug-27 22:31N 49°17' W 123°07'0 0.0
2015-Aug-27 21:31N 49°17' W 123°07'0 0.0
2015-Aug-27 20:31N 49°17' W 123°07'0 0.0
2015-Aug-27 19:31N 49°17' W 123°07'0 0.0
2015-Aug-27 18:31N 49°17' W 123°07'0 0.0
2015-Aug-27 17:31N 49°17' W 123°07'0 0.0
2015-Aug-27 16:31N 49°17' W 123°07'0 0.0
2015-Aug-27 15:31N 49°17' W 123°07'0 0.2
2015-Aug-27 14:33N 49°17' W 123°06'9 9.2
2015-Aug-27 13:33N 49°18' W 123°20'1211.9
2015-Aug-27 12:33N 49°19' W 123°39'1212.0
2015-Aug-27 11:33N 49°21' W 123°57'1211.9
2015-Aug-27 10:33N 49°25' W 124°14'1211.8
2015-Aug-27 09:33N 49°30' W 124°30'1212.0
2015-Aug-27 08:33N 49°39' W 124°43'1212.0
2015-Aug-27 07:33N 49°48' W 124°56'1212.0
2015-Aug-27 06:31N 49°57' W 125°09'1211.9
2015-Aug-27 05:33N 50°07' W 125°19'1111.0
2015-Aug-27 04:33N 50°17' W 125°24'5212.3
2015-Aug-27 00:18N 50°35' W 126°42'1215.1
2015-Aug-26 23:32N 50°42' W 126°56'1414.5
2015-Aug-26 22:33N 50°47' W 127°17'1514.8
2015-Aug-26 21:33N 50°54' W 127°38'1414.3
2015-Aug-26 20:33N 51°02' W 127°57'49112.0
2015-Aug-25 03:34N 58°09' W 134°56'  
2015-Aug-22 14:33N 58°14' W 135°32'1515.2
2015-Aug-22 13:33N 58°20' W 135°58'  
2015-Aug-19 06:33N 57°11' W 136°24'1313.3
2015-Aug-19 05:33N 57°02' W 136°05'1111.3
2015-Aug-19 04:33N 56°57' W 135°47'1010.4
2015-Aug-19 03:33N 57°03' W 135°31'6 5.5
2015-Aug-19 02:33N 57°07' W 135°24'0 0.0
2015-Aug-19 01:31N 57°07' W 135°24'0 0.0
2015-Aug-19 00:34N 57°07' W 135°24'0 0.0
2015-Aug-18 23:31N 57°07' W 135°24'0 0.0
2015-Aug-18 22:34N 57°07' W 135°24'0 0.0
2015-Aug-18 21:31N 57°07' W 135°24'0 0.0
2015-Aug-18 20:31N 57°07' W 135°24'  

Dump ship's entire track history